sensor_id;sensor_type;location;lat;lon;timestamp;P1;durP1;ratioP1;P2;durP2;ratioP2
81868;SDS011;71320;52.252;13.382;2023-08-07T00:03:54;8.88;;;2.67;;
81868;SDS011;71320;52.252;13.382;2023-08-07T00:08:55;3.28;;;2.60;;
81868;SDS011;71320;52.252;13.382;2023-08-07T00:13:57;8.43;;;2.85;;
81868;SDS011;71320;52.252;13.382;2023-08-07T00:19:00;3.20;;;2.67;;
81868;SDS011;71320;52.252;13.382;2023-08-07T00:24:03;3.13;;;2.47;;
81868;SDS011;71320;52.252;13.382;2023-08-07T00:29:05;2.85;;;2.20;;
81868;SDS011;71320;52.252;13.382;2023-08-07T00:34:08;3.85;;;2.30;;
81868;SDS011;71320;52.252;13.382;2023-08-07T00:39:09;4.05;;;2.42;;
81868;SDS011;71320;52.252;13.382;2023-08-07T00:44:13;3.22;;;2.55;;
81868;SDS011;71320;52.252;13.382;2023-08-07T00:49:16;4.60;;;1.90;;
81868;SDS011;71320;52.252;13.382;2023-08-07T00:54:19;3.55;;;2.05;;
81868;SDS011;71320;52.252;13.382;2023-08-07T00:59:21;4.90;;;2.38;;
81868;SDS011;71320;52.252;13.382;2023-08-07T01:04:24;8.68;;;2.50;;
81868;SDS011;71320;52.252;13.382;2023-08-07T01:09:26;3.55;;;2.38;;
81868;SDS011;71320;52.252;13.382;2023-08-07T01:14:31;5.65;;;2.80;;
81868;SDS011;71320;52.252;13.382;2023-08-07T01:19:39;6.32;;;2.42;;
81868;SDS011;71320;52.252;13.382;2023-08-07T01:24:44;5.63;;;3.10;;
81868;SDS011;71320;52.252;13.382;2023-08-07T01:29:49;10.05;;;3.63;;
81868;SDS011;71320;52.252;13.382;2023-08-07T01:34:55;6.43;;;2.72;;
81868;SDS011;71320;52.252;13.382;2023-08-07T01:40:01;6.80;;;2.95;;
81868;SDS011;71320;52.252;13.382;2023-08-07T01:45:04;6.95;;;3.33;;
81868;SDS011;71320;52.252;13.382;2023-08-07T01:50:06;8.95;;;2.70;;
81868;SDS011;71320;52.252;13.382;2023-08-07T01:55:09;7.30;;;3.40;;
81868;SDS011;71320;52.252;13.382;2023-08-07T02:00:11;5.00;;;3.20;;
81868;SDS011;71320;52.252;13.382;2023-08-07T02:05:16;6.50;;;3.00;;
81868;SDS011;71320;52.252;13.382;2023-08-07T02:10:19;4.90;;;3.00;;
81868;SDS011;71320;52.252;13.382;2023-08-07T02:15:21;4.93;;;3.30;;
81868;SDS011;71320;52.252;13.382;2023-08-07T02:20:25;7.97;;;2.92;;
81868;SDS011;71320;52.252;13.382;2023-08-07T02:25:27;5.32;;;3.05;;
81868;SDS011;71320;52.252;13.382;2023-08-07T02:30:30;4.88;;;3.10;;
81868;SDS011;71320;52.252;13.382;2023-08-07T02:35:31;7.40;;;3.30;;
81868;SDS011;71320;52.252;13.382;2023-08-07T02:40:35;4.47;;;3.35;;
81868;SDS011;71320;52.252;13.382;2023-08-07T02:45:36;7.05;;;3.55;;
81868;SDS011;71320;52.252;13.382;2023-08-07T02:50:38;4.35;;;2.92;;
81868;SDS011;71320;52.252;13.382;2023-08-07T02:55:42;6.38;;;2.85;;
81868;SDS011;71320;52.252;13.382;2023-08-07T03:00:44;3.13;;;2.60;;
81868;SDS011;71320;52.252;13.382;2023-08-07T03:05:48;4.88;;;3.08;;
81868;SDS011;71320;52.252;13.382;2023-08-07T03:10:52;6.90;;;2.97;;
81868;SDS011;71320;52.252;13.382;2023-08-07T03:15:58;3.60;;;2.83;;
81868;SDS011;71320;52.252;13.382;2023-08-07T03:21:00;4.63;;;3.22;;
81868;SDS011;71320;52.252;13.382;2023-08-07T03:26:04;4.78;;;2.92;;
81868;SDS011;71320;52.252;13.382;2023-08-07T03:31:06;6.75;;;2.95;;
81868;SDS011;71320;52.252;13.382;2023-08-07T03:36:10;7.07;;;2.75;;
81868;SDS011;71320;52.252;13.382;2023-08-07T03:41:13;6.03;;;3.17;;
81868;SDS011;71320;52.252;13.382;2023-08-07T03:46:16;5.15;;;3.40;;
81868;SDS011;71320;52.252;13.382;2023-08-07T03:51:18;6.07;;;3.13;;
81868;SDS011;71320;52.252;13.382;2023-08-07T03:56:27;5.25;;;3.15;;
81868;SDS011;71320;52.252;13.382;2023-08-07T04:01:32;6.38;;;3.47;;
81868;SDS011;71320;52.252;13.382;2023-08-07T04:06:34;13.60;;;3.88;;
81868;SDS011;71320;52.252;13.382;2023-08-07T04:11:37;7.43;;;3.35;;
81868;SDS011;71320;52.252;13.382;2023-08-07T04:16:38;6.43;;;3.33;;
81868;SDS011;71320;52.252;13.382;2023-08-07T04:21:40;7.28;;;3.63;;
81868;SDS011;71320;52.252;13.382;2023-08-07T04:26:44;5.43;;;3.47;;
81868;SDS011;71320;52.252;13.382;2023-08-07T04:31:46;5.72;;;3.15;;
81868;SDS011;71320;52.252;13.382;2023-08-07T04:36:47;6.50;;;3.22;;
81868;SDS011;71320;52.252;13.382;2023-08-07T04:41:51;5.00;;;3.65;;
81868;SDS011;71320;52.252;13.382;2023-08-07T04:46:53;5.72;;;3.22;;
81868;SDS011;71320;52.252;13.382;2023-08-07T04:51:54;5.70;;;3.22;;
81868;SDS011;71320;52.252;13.382;2023-08-07T04:56:57;7.47;;;3.58;;
81868;SDS011;71320;52.252;13.382;2023-08-07T05:01:59;8.90;;;3.00;;
81868;SDS011;71320;52.252;13.382;2023-08-07T05:07:01;6.20;;;3.28;;
81868;SDS011;71320;52.252;13.382;2023-08-07T05:12:05;4.30;;;3.10;;
81868;SDS011;71320;52.252;13.382;2023-08-07T05:17:08;6.57;;;3.17;;
81868;SDS011;71320;52.252;13.382;2023-08-07T05:22:10;9.98;;;4.00;;
81868;SDS011;71320;52.252;13.382;2023-08-07T05:27:13;4.95;;;2.67;;
81868;SDS011;71320;52.252;13.382;2023-08-07T05:32:14;4.45;;;2.63;;
81868;SDS011;71320;52.252;13.382;2023-08-07T05:37:16;4.60;;;2.83;;
81868;SDS011;71320;52.252;13.382;2023-08-07T05:42:19;4.57;;;2.78;;
81868;SDS011;71320;52.252;13.382;2023-08-07T05:47:21;4.95;;;2.65;;
81868;SDS011;71320;52.252;13.382;2023-08-07T05:52:22;11.00;;;2.70;;
81868;SDS011;71320;52.252;13.382;2023-08-07T05:57:25;4.25;;;2.90;;
81868;SDS011;71320;52.252;13.382;2023-08-07T06:02:27;3.78;;;2.30;;
81868;SDS011;71320;52.252;13.382;2023-08-07T06:07:29;6.00;;;2.67;;
81868;SDS011;71320;52.252;13.382;2023-08-07T06:12:32;7.82;;;2.42;;
81868;SDS011;71320;52.252;13.382;2023-08-07T06:17:33;4.50;;;2.08;;
81868;SDS011;71320;52.252;13.382;2023-08-07T06:22:35;5.07;;;2.05;;
81868;SDS011;71320;52.252;13.382;2023-08-07T06:27:38;10.02;;;2.60;;
